Saturday, August 18, 2018, 1:58 PM GMT
Back to Local

CYQM, Moncton, N. B.

Location: , , Canada Lat: 46.117
Local Time: 1:58 PM GMT (13:58 GMT) Lon: -64.683
Time Zone: GMT Elev: 232 ft

Show me the last for .
Show Decoded

2018-08-18 13:00 METAR CYQM 181300Z 02008KT 010V080 3SM RA BR BKN003 BKN015 OVC027 14/14 A2985
                 RMK SF5SC2SC1 SLP111 DENSITY ALT 300FT =
2018-08-18 12:38 METAR CYQM 181238Z 06007KT 3SM RA BR BKN005 OVC024 14/14 A2985 RMK SF5SC3 SLP110
                 DENSITY ALT 300FT =
2018-08-18 12:00 METAR CYQM 181200Z 03006KT 6SM -RA BR BKN004 OVC025 14/14 A2986 RMK SF7SC1
                 SLP113 DENSITY ALT 300FT =
2018-08-18 11:58 METAR CYQM 181158Z 03007KT 010V090 6SM -RA BR BKN005 OVC021 14/14 A2986 RMK
                 SF7SC1 SLP113 DENSITY ALT 300FT =
2018-08-18 11:00 METAR CYQM 181100Z 07009KT 3SM RA BR BKN042 OVC057 14/14 A2987 RMK SC6SC2 PRESFR
                 SLP117 DENSITY ALT 300FT =
2018-08-18 10:00 METAR CYQM 181000Z 08005KT 3SM RA OVC045 14/14 A2991 RMK SC8 SLP130 =
2018-08-18 09:00 METAR CYQM 180900Z 28006KT 8SM RA OVC042 15/14 A2994 RMK SC8 SLP142 DENSITY ALT
                 300FT =
2018-08-18 08:54 METAR CYQM 180854Z 31003KT 8SM RA OVC045 15/13 A2993 RMK SC8 SLP137 DENSITY ALT
                 300FT =
2018-08-18 08:00 METAR CYQM 180800Z 13005KT 15SM -RA OVC052 15/13 A2990 RMK SC8 SLP127 DENSITY
                 ALT 400FT =
2018-08-18 07:00 METAR CYQM 180700Z 16005KT 15SM OVC063 16/12 A2992 RMK SC8 SLP133 DENSITY ALT
                 500FT =
2018-08-18 06:00 METAR CYQM 180600Z 14005KT 15SM FEW092 OVC120 15/12 A2994 RMK AC2AC6 SLP140
                 DENSITY ALT 300FT =
2018-08-18 05:00 METAR CYQM 180500Z 18005KT 15SM OVC130 15/12 A2997 RMK AC8 SLP150 DENSITY ALT
                 300FT =
2018-08-18 04:00 METAR CYQM 180400Z 17003KT 15SM OVC170 16/12 A2998 RMK AC8 SLP154 DENSITY ALT
                 300FT =
2018-08-18 03:00 METAR CYQM 180300Z 19006KT 15SM BKN220 16/11 A2998 RMK CI5 SLP156 DENSITY ALT
                 400FT =
2018-08-18 02:00 METAR CYQM 180200Z 20004KT 15SM SCT042 BKN240 17/11 A2999 RMK SC3CI2 SLP159
                 DENSITY ALT 400FT =
2018-08-18 01:00 METAR CYQM 180100Z 22006KT 15SM SCT042 18/12 A3000 RMK SC4 SLP161 DENSITY ALT
                 600FT =
2018-08-18 00:00 METAR CYQM 180000Z 21009KT 15SM BKN043 BKN140 OVC250 20/13 A3000 RMK SC6AC1CI1
                 SLP161 DENSITY ALT 800FT =
2018-08-17 23:00 METAR CYQM 172300Z 14005KT 15SM BKN046 BKN150 OVC260 20/15 A2999 RMK SC6AC1CI1
                 SLP157 DENSITY ALT 800FT =
2018-08-17 22:00 METAR CYQM 172200Z 14006KT 15SM FEW046 FEW120 BKN260 21/15 A2999 RMK SC1AC1CI6
                 AC TR SLP158 DENSITY ALT 900FT =
2018-08-17 21:00 METAR CYQM 172100Z 16008KT 15SM SCT049 SCT120 BKN260 22/14 A3000 RMK SC3AC1CI4
                 AC TR SLP162 DENSITY ALT 1000FT =
2018-08-17 20:00 METAR CYQM 172000Z 17007KT 120V190 15SM BKN049 BKN260 22/14 A3002 RMK SC5CI1
                 SLP167 DENSITY ALT 1000FT =
2018-08-17 19:00 METAR CYQM 171900Z 15009KT 15SM SCT043 SCT260 23/14 A3003 RMK SC3CI1 SLP171
                 DENSITY ALT 1200FT =
2018-08-17 18:00 METAR CYQM 171800Z 23008KT 190V270 15SM SCT038 BKN260 23/12 A3004 RMK SC4CI1
                 SLP174 DENSITY ALT 1100FT =
2018-08-17 17:00 METAR CYQM 171700Z 25005KT 15SM BKN042 22/12 A3005 RMK SC6 SLP179 DENSITY ALT
                 1000FT =
2018-08-17 16:00 METAR CYQM 171600Z 23007KT 150V290 15SM BKN039 21/12 A3007 RMK CU6 SLP184
                 DENSITY ALT 800FT =
2018-08-17 15:00 METAR CYQM 171500Z VRB02KT 15SM SCT026 SCT260 20/14 A3009 RMK CU3CI1 SLP193
                 DENSITY ALT 700FT =
2018-08-17 14:00 METAR CYQM 171400Z 00000KT 15SM FEW022 SCT260 18/12 A3011 RMK CU2CI2 SLP197
                 DENSITY ALT 400FT =

Support USWX by starting your Amazon purchase here.